sensor_id;sensor_type;location;lat;lon;timestamp;P1;durP1;ratioP1;P2;durP2;ratioP2
71769;SDS011;66386;52.122;5.420;2023-07-22T00:00:00;7.07;;;3.70;;
71769;SDS011;66386;52.122;5.420;2023-07-22T00:02:27;4.75;;;3.50;;
71769;SDS011;66386;52.122;5.420;2023-07-22T00:04:53;6.50;;;3.60;;
71769;SDS011;66386;52.122;5.420;2023-07-22T00:07:20;7.43;;;3.90;;
71769;SDS011;66386;52.122;5.420;2023-07-22T00:09:46;7.38;;;4.28;;
71769;SDS011;66386;52.122;5.420;2023-07-22T00:12:16;5.00;;;3.58;;
71769;SDS011;66386;52.122;5.420;2023-07-22T00:14:42;8.18;;;4.05;;
71769;SDS011;66386;52.122;5.420;2023-07-22T00:17:09;6.50;;;4.00;;
71769;SDS011;66386;52.122;5.420;2023-07-22T00:19:35;6.82;;;3.83;;
71769;SDS011;66386;52.122;5.420;2023-07-22T00:22:02;7.00;;;3.95;;
71769;SDS011;66386;52.122;5.420;2023-07-22T00:24:29;5.28;;;4.00;;
71769;SDS011;66386;52.122;5.420;2023-07-22T00:26:55;11.07;;;4.43;;
71769;SDS011;66386;52.122;5.420;2023-07-22T00:29:22;8.53;;;4.67;;
71769;SDS011;66386;52.122;5.420;2023-07-22T00:31:48;7.07;;;4.20;;
71769;SDS011;66386;52.122;5.420;2023-07-22T00:34:15;7.57;;;4.10;;
71769;SDS011;66386;52.122;5.420;2023-07-22T00:36:42;7.13;;;4.25;;
71769;SDS011;66386;52.122;5.420;2023-07-22T00:39:10;5.90;;;3.92;;
71769;SDS011;66386;52.122;5.420;2023-07-22T00:41:40;7.50;;;4.27;;
71769;SDS011;66386;52.122;5.420;2023-07-22T00:44:08;5.97;;;4.03;;
71769;SDS011;66386;52.122;5.420;2023-07-22T00:46:35;5.97;;;3.83;;
71769;SDS011;66386;52.122;5.420;2023-07-22T00:49:02;6.70;;;4.40;;
71769;SDS011;66386;52.122;5.420;2023-07-22T00:51:28;7.35;;;4.25;;
71769;SDS011;66386;52.122;5.420;2023-07-22T00:53:55;7.63;;;4.70;;
71769;SDS011;66386;52.122;5.420;2023-07-22T00:56:22;7.70;;;4.50;;
71769;SDS011;66386;52.122;5.420;2023-07-22T00:58:48;7.18;;;4.45;;
71769;SDS011;66386;52.122;5.420;2023-07-22T01:01:15;9.50;;;4.45;;
71769;SDS011;66386;52.122;5.420;2023-07-22T01:03:42;5.53;;;3.60;;
71769;SDS011;66386;52.122;5.420;2023-07-22T01:06:09;5.63;;;3.73;;
71769;SDS011;66386;52.122;5.420;2023-07-22T01:08:38;7.07;;;3.85;;
71769;SDS011;66386;52.122;5.420;2023-07-22T01:11:06;7.40;;;3.88;;
71769;SDS011;66386;52.122;5.420;2023-07-22T01:13:32;7.60;;;3.80;;
71769;SDS011;66386;52.122;5.420;2023-07-22T01:15:59;6.78;;;3.60;;
71769;SDS011;66386;52.122;5.420;2023-07-22T01:18:26;7.47;;;4.10;;
71769;SDS011;66386;52.122;5.420;2023-07-22T01:20:52;10.10;;;4.88;;
71769;SDS011;66386;52.122;5.420;2023-07-22T01:23:19;7.38;;;4.15;;
71769;SDS011;66386;52.122;5.420;2023-07-22T01:25:45;6.57;;;3.95;;
71769;SDS011;66386;52.122;5.420;2023-07-22T01:28:12;7.25;;;4.43;;
71769;SDS011;66386;52.122;5.420;2023-07-22T01:30:38;6.30;;;4.30;;
71769;SDS011;66386;52.122;5.420;2023-07-22T01:33:06;7.03;;;4.40;;
71769;SDS011;66386;52.122;5.420;2023-07-22T01:35:32;6.40;;;3.97;;
71769;SDS011;66386;52.122;5.420;2023-07-22T01:37:59;6.68;;;4.13;;
71769;SDS011;66386;52.122;5.420;2023-07-22T01:40:26;6.80;;;4.25;;
71769;SDS011;66386;52.122;5.420;2023-07-22T01:42:52;6.93;;;4.07;;
71769;SDS011;66386;52.122;5.420;2023-07-22T01:45:19;6.15;;;3.67;;
71769;SDS011;66386;52.122;5.420;2023-07-22T01:47:45;6.97;;;3.90;;
71769;SDS011;66386;52.122;5.420;2023-07-22T01:50:12;7.22;;;4.32;;
71769;SDS011;66386;52.122;5.420;2023-07-22T01:52:39;9.18;;;5.00;;
71769;SDS011;66386;52.122;5.420;2023-07-22T01:55:06;7.53;;;4.43;;
71769;SDS011;66386;52.122;5.420;2023-07-22T01:57:37;8.05;;;4.45;;
71769;SDS011;66386;52.122;5.420;2023-07-22T02:00:04;8.50;;;4.75;;
71769;SDS011;66386;52.122;5.420;2023-07-22T02:02:31;6.80;;;4.20;;
71769;SDS011;66386;52.122;5.420;2023-07-22T02:04:58;7.03;;;3.50;;
71769;SDS011;66386;52.122;5.420;2023-07-22T02:07:25;7.17;;;3.87;;
71769;SDS011;66386;52.122;5.420;2023-07-22T02:09:52;7.22;;;3.83;;
71769;SDS011;66386;52.122;5.420;2023-07-22T02:12:19;9.88;;;4.28;;
71769;SDS011;66386;52.122;5.420;2023-07-22T02:14:46;6.90;;;4.43;;
71769;SDS011;66386;52.122;5.420;2023-07-22T02:17:13;6.85;;;4.05;;
71769;SDS011;66386;52.122;5.420;2023-07-22T02:19:40;8.87;;;3.77;;
71769;SDS011;66386;52.122;5.420;2023-07-22T02:22:06;7.80;;;4.72;;
71769;SDS011;66386;52.122;5.420;2023-07-22T02:24:33;8.43;;;4.53;;
71769;SDS011;66386;52.122;5.420;2023-07-22T02:26:59;7.82;;;4.50;;
71769;SDS011;66386;52.122;5.420;2023-07-22T02:29:26;8.13;;;4.30;;
71769;SDS011;66386;52.122;5.420;2023-07-22T02:31:52;6.87;;;4.63;;
71769;SDS011;66386;52.122;5.420;2023-07-22T02:34:19;6.72;;;4.13;;
71769;SDS011;66386;52.122;5.420;2023-07-22T02:36:45;8.00;;;3.80;;
71769;SDS011;66386;52.122;5.420;2023-07-22T02:39:12;6.30;;;3.97;;
71769;SDS011;66386;52.122;5.420;2023-07-22T02:41:39;8.00;;;4.57;;
71769;SDS011;66386;52.122;5.420;2023-07-22T02:44:06;6.63;;;4.40;;
71769;SDS011;66386;52.122;5.420;2023-07-22T02:46:32;7.68;;;4.05;;
71769;SDS011;66386;52.122;5.420;2023-07-22T02:48:59;6.57;;;3.83;;
71769;SDS011;66386;52.122;5.420;2023-07-22T02:51:25;9.85;;;4.32;;
71769;SDS011;66386;52.122;5.420;2023-07-22T02:53:52;8.27;;;3.95;;
71769;SDS011;66386;52.122;5.420;2023-07-22T02:56:18;7.43;;;4.37;;
71769;SDS011;66386;52.122;5.420;2023-07-22T02:58:45;9.98;;;4.28;;
71769;SDS011;66386;52.122;5.420;2023-07-22T03:01:11;5.72;;;3.70;;
71769;SDS011;66386;52.122;5.420;2023-07-22T03:03:38;6.80;;;3.42;;
71769;SDS011;66386;52.122;5.420;2023-07-22T03:06:06;7.88;;;3.85;;
71769;SDS011;66386;52.122;5.420;2023-07-22T03:08:34;5.93;;;3.60;;
71769;SDS011;66386;52.122;5.420;2023-07-22T03:11:01;7.80;;;4.03;;
71769;SDS011;66386;52.122;5.420;2023-07-22T03:13:27;7.03;;;4.00;;
71769;SDS011;66386;52.122;5.420;2023-07-22T03:15:56;7.72;;;4.38;;
71769;SDS011;66386;52.122;5.420;2023-07-22T03:18:24;7.78;;;4.57;;
71769;SDS011;66386;52.122;5.420;2023-07-22T03:20:50;9.20;;;4.70;;
71769;SDS011;66386;52.122;5.420;2023-07-22T03:23:18;11.98;;;4.80;;
71769;SDS011;66386;52.122;5.420;2023-07-22T03:25:45;11.57;;;5.70;;
71769;SDS011;66386;52.122;5.420;2023-07-22T03:28:12;10.50;;;5.07;;
71769;SDS011;66386;52.122;5.420;2023-07-22T03:30:39;12.80;;;5.63;;
71769;SDS011;66386;52.122;5.420;2023-07-22T03:33:06;10.93;;;5.90;;
71769;SDS011;66386;52.122;5.420;2023-07-22T03:35:33;14.48;;;6.43;;
71769;SDS011;66386;52.122;5.420;2023-07-22T03:38:00;11.18;;;5.53;;
71769;SDS011;66386;52.122;5.420;2023-07-22T03:40:27;10.13;;;5.97;;
71769;SDS011;66386;52.122;5.420;2023-07-22T03:42:56;12.57;;;5.75;;
71769;SDS011;66386;52.122;5.420;2023-07-22T03:45:24;11.63;;;6.57;;
71769;SDS011;66386;52.122;5.420;2023-07-22T03:47:51;13.82;;;6.40;;
71769;SDS011;66386;52.122;5.420;2023-07-22T03:50:26;13.25;;;6.25;;
71769;SDS011;66386;52.122;5.420;2023-07-22T03:52:53;12.40;;;6.82;;
71769;SDS011;66386;52.122;5.420;2023-07-22T03:55:19;10.90;;;5.78;;
71769;SDS011;66386;52.122;5.420;2023-07-22T03:57:46;9.53;;;5.67;;
71769;SDS011;66386;52.122;5.420;2023-07-22T04:00:12;9.25;;;4.93;;
71769;SDS011;66386;52.122;5.420;2023-07-22T04:02:42;10.02;;;4.93;;
71769;SDS011;66386;52.122;5.420;2023-07-22T04:05:09;8.25;;;4.75;;
71769;SDS011;66386;52.122;5.420;2023-07-22T04:07:36;10.27;;;5.15;;
71769;SDS011;66386;52.122;5.420;2023-07-22T04:10:02;11.63;;;5.70;;
71769;SDS011;66386;52.122;5.420;2023-07-22T04:12:29;11.80;;;6.22;;
71769;SDS011;66386;52.122;5.420;2023-07-22T04:14:56;11.02;;;6.28;;
71769;SDS011;66386;52.122;5.420;2023-07-22T04:17:23;11.75;;;6.38;;
71769;SDS011;66386;52.122;5.420;2023-07-22T04:19:51;13.25;;;6.50;;
71769;SDS011;66386;52.122;5.420;2023-07-22T04:22:18;11.37;;;5.93;;
71769;SDS011;66386;52.122;5.420;2023-07-22T04:24:46;11.85;;;6.38;;
71769;SDS011;66386;52.122;5.420;2023-07-22T04:27:15;13.32;;;6.57;;
71769;SDS011;66386;52.122;5.420;2023-07-22T04:29:42;13.50;;;6.63;;
71769;SDS011;66386;52.122;5.420;2023-07-22T04:32:09;12.90;;;6.53;;
71769;SDS011;66386;52.122;5.420;2023-07-22T04:34:35;12.23;;;6.33;;
71769;SDS011;66386;52.122;5.420;2023-07-22T04:37:02;14.77;;;6.40;;
71769;SDS011;66386;52.122;5.420;2023-07-22T04:39:29;13.35;;;6.65;;
71769;SDS011;66386;52.122;5.420;2023-07-22T04:41:55;15.38;;;7.03;;
71769;SDS011;66386;52.122;5.420;2023-07-22T04:44:22;12.60;;;6.30;;
71769;SDS011;66386;52.122;5.420;2023-07-22T04:46:48;14.27;;;7.30;;
71769;SDS011;66386;52.122;5.420;2023-07-22T04:49:15;13.73;;;7.55;;
71769;SDS011;66386;52.122;5.420;2023-07-22T04:51:45;12.50;;;7.07;;
71769;SDS011;66386;52.122;5.420;2023-07-22T04:54:12;15.30;;;7.80;;
71769;SDS011;66386;52.122;5.420;2023-07-22T04:56:38;15.30;;;7.05;;
71769;SDS011;66386;52.122;5.420;2023-07-22T04:59:05;14.83;;;7.23;;
71769;SDS011;66386;52.122;5.420;2023-07-22T05:01:31;16.58;;;8.30;;
71769;SDS011;66386;52.122;5.420;2023-07-22T05:03:58;12.98;;;7.15;;
71769;SDS011;66386;52.122;5.420;2023-07-22T05:06:24;14.02;;;7.53;;
71769;SDS011;66386;52.122;5.420;2023-07-22T05:08:51;14.73;;;8.30;;
71769;SDS011;66386;52.122;5.420;2023-07-22T05:11:18;17.10;;;8.33;;
71769;SDS011;66386;52.122;5.420;2023-07-22T05:13:44;16.52;;;8.90;;
71769;SDS011;66386;52.122;5.420;2023-07-22T05:16:11;15.10;;;7.75;;
71769;SDS011;66386;52.122;5.420;2023-07-22T05:18:38;22.27;;;8.63;;
71769;SDS011;66386;52.122;5.420;2023-07-22T05:21:05;16.10;;;8.18;;
71769;SDS011;66386;52.122;5.420;2023-07-22T05:23:31;17.63;;;8.57;;
71769;SDS011;66386;52.122;5.420;2023-07-22T05:25:58;19.33;;;8.52;;
71769;SDS011;66386;52.122;5.420;2023-07-22T05:28:24;20.02;;;8.93;;
71769;SDS011;66386;52.122;5.420;2023-07-22T05:30:51;16.65;;;8.55;;
71769;SDS011;66386;52.122;5.420;2023-07-22T05:33:18;20.48;;;8.90;;
71769;SDS011;66386;52.122;5.420;2023-07-22T05:35:44;17.37;;;9.27;;
71769;SDS011;66386;52.122;5.420;2023-07-22T05:38:14;17.40;;;8.68;;
71769;SDS011;66386;52.122;5.420;2023-07-22T05:40:40;21.90;;;10.15;;
71769;SDS011;66386;52.122;5.420;2023-07-22T05:43:07;17.73;;;9.35;;
71769;SDS011;66386;52.122;5.420;2023-07-22T05:45:34;20.45;;;9.68;;
71769;SDS011;66386;52.122;5.420;2023-07-22T05:48:00;18.60;;;9.43;;
71769;SDS011;66386;52.122;5.420;2023-07-22T05:50:27;18.55;;;9.60;;
71769;SDS011;66386;52.122;5.420;2023-07-22T05:52:53;18.10;;;9.43;;
71769;SDS011;66386;52.122;5.420;2023-07-22T05:55:20;21.05;;;9.07;;
71769;SDS011;66386;52.122;5.420;2023-07-22T05:57:46;18.70;;;9.48;;
71769;SDS011;66386;52.122;5.420;2023-07-22T06:00:13;21.53;;;9.23;;
71769;SDS011;66386;52.122;5.420;2023-07-22T06:02:40;23.40;;;8.93;;
71769;SDS011;66386;52.122;5.420;2023-07-22T06:05:07;22.17;;;10.18;;
71769;SDS011;66386;52.122;5.420;2023-07-22T06:07:34;20.13;;;9.98;;
71769;SDS011;66386;52.122;5.420;2023-07-22T06:10:00;17.40;;;9.15;;
71769;SDS011;66386;52.122;5.420;2023-07-22T06:12:27;17.67;;;9.80;;
71769;SDS011;66386;52.122;5.420;2023-07-22T06:14:53;17.42;;;9.68;;
71769;SDS011;66386;52.122;5.420;2023-07-22T06:17:20;17.38;;;8.93;;
71769;SDS011;66386;52.122;5.420;2023-07-22T06:19:47;22.60;;;10.07;;
71769;SDS011;66386;52.122;5.420;2023-07-22T06:22:14;23.10;;;9.98;;
71769;SDS011;66386;52.122;5.420;2023-07-22T06:24:41;19.77;;;10.03;;
71769;SDS011;66386;52.122;5.420;2023-07-22T06:27:07;18.80;;;10.00;;
71769;SDS011;66386;52.122;5.420;2023-07-22T06:29:34;21.98;;;10.45;;
71769;SDS011;66386;52.122;5.420;2023-07-22T06:32:00;21.13;;;10.30;;
71769;SDS011;66386;52.122;5.420;2023-07-22T06:34:27;18.30;;;10.05;;
71769;SDS011;66386;52.122;5.420;2023-07-22T06:36:54;17.47;;;9.63;;
71769;SDS011;66386;52.122;5.420;2023-07-22T06:39:20;18.17;;;10.00;;
71769;SDS011;66386;52.122;5.420;2023-07-22T06:41:47;18.92;;;10.68;;
71769;SDS011;66386;52.122;5.420;2023-07-22T06:44:13;17.48;;;10.10;;
71769;SDS011;66386;52.122;5.420;2023-07-22T06:46:40;20.98;;;11.23;;
71769;SDS011;66386;52.122;5.420;2023-07-22T06:49:07;18.17;;;10.57;;
71769;SDS011;66386;52.122;5.420;2023-07-22T06:51:33;18.15;;;10.70;;
71769;SDS011;66386;52.122;5.420;2023-07-22T06:54:01;18.80;;;11.52;;
71769;SDS011;66386;52.122;5.420;2023-07-22T06:56:28;20.58;;;11.07;;
71769;SDS011;66386;52.122;5.420;2023-07-22T06:58:55;21.52;;;10.52;;
71769;SDS011;66386;52.122;5.420;2023-07-22T07:01:22;17.93;;;9.93;;
71769;SDS011;66386;52.122;5.420;2023-07-22T07:03:49;16.88;;;10.40;;
71769;SDS011;66386;52.122;5.420;2023-07-22T07:06:16;15.70;;;9.93;;
71769;SDS011;66386;52.122;5.420;2023-07-22T07:08:43;18.42;;;10.25;;
71769;SDS011;66386;52.122;5.420;2023-07-22T07:11:09;18.17;;;10.45;;
71769;SDS011;66386;52.122;5.420;2023-07-22T07:13:35;19.17;;;10.10;;
71769;SDS011;66386;52.122;5.420;2023-07-22T07:16:21;17.73;;;10.63;;
71769;SDS011;66386;52.122;5.420;2023-07-22T07:18:50;19.85;;;9.48;;
71769;SDS011;66386;52.122;5.420;2023-07-22T07:21:18;15.20;;;10.02;;
71769;SDS011;66386;52.122;5.420;2023-07-22T07:23:45;18.25;;;10.18;;
71769;SDS011;66386;52.122;5.420;2023-07-22T07:26:12;16.90;;;9.73;;
71769;SDS011;66386;52.122;5.420;2023-07-22T07:28:38;17.58;;;9.65;;
71769;SDS011;66386;52.122;5.420;2023-07-22T07:31:05;16.17;;;9.38;;
71769;SDS011;66386;52.122;5.420;2023-07-22T07:33:32;18.58;;;9.90;;
71769;SDS011;66386;52.122;5.420;2023-07-22T07:35:59;15.15;;;9.35;;
71769;SDS011;66386;52.122;5.420;2023-07-22T07:38:26;19.27;;;10.13;;
71769;SDS011;66386;52.122;5.420;2023-07-22T07:40:56;16.23;;;9.60;;
71769;SDS011;66386;52.122;5.420;2023-07-22T07:43:24;15.75;;;8.35;;
71769;SDS011;66386;52.122;5.420;2023-07-22T07:46:10;16.67;;;8.93;;
71769;SDS011;66386;52.122;5.420;2023-07-22T07:48:40;14.43;;;8.68;;
71769;SDS011;66386;52.122;5.420;2023-07-22T07:51:07;14.73;;;9.40;;
71769;SDS011;66386;52.122;5.420;2023-07-22T07:53:33;13.98;;;9.52;;
71769;SDS011;66386;52.122;5.420;2023-07-22T07:56:00;14.52;;;8.65;;
71769;SDS011;66386;52.122;5.420;2023-07-22T07:58:26;14.13;;;7.82;;
71769;SDS011;66386;52.122;5.420;2023-07-22T08:00:53;17.05;;;8.18;;
71769;SDS011;66386;52.122;5.420;2023-07-22T08:03:19;14.43;;;8.20;;
71769;SDS011;66386;52.122;5.420;2023-07-22T08:05:46;15.60;;;8.40;;
71769;SDS011;66386;52.122;5.420;2023-07-22T08:08:13;13.15;;;8.00;;
71769;SDS011;66386;52.122;5.420;2023-07-22T08:10:40;15.52;;;9.13;;
71769;SDS011;66386;52.122;5.420;2023-07-22T08:13:07;13.35;;;7.63;;
71769;SDS011;66386;52.122;5.420;2023-07-22T08:15:33;15.47;;;8.33;;
71769;SDS011;66386;52.122;5.420;2023-07-22T08:18:00;14.13;;;7.80;;
71769;SDS011;66386;52.122;5.420;2023-07-22T08:20:27;14.10;;;8.10;;
71769;SDS011;66386;52.122;5.420;2023-07-22T08:22:53;12.60;;;7.65;;
71769;SDS011;66386;52.122;5.420;2023-07-22T08:25:20;13.93;;;6.97;;
71769;SDS011;66386;52.122;5.420;2023-07-22T08:27:46;10.87;;;6.53;;
71769;SDS011;66386;52.122;5.420;2023-07-22T08:30:15;16.33;;;7.40;;
71769;SDS011;66386;52.122;5.420;2023-07-22T08:32:41;11.52;;;6.93;;
71769;SDS011;66386;52.122;5.420;2023-07-22T08:35:08;10.15;;;6.32;;
71769;SDS011;66386;52.122;5.420;2023-07-22T08:37:35;8.85;;;6.00;;
71769;SDS011;66386;52.122;5.420;2023-07-22T08:40:02;9.37;;;6.67;;
71769;SDS011;66386;52.122;5.420;2023-07-22T08:42:29;12.57;;;6.80;;
71769;SDS011;66386;52.122;5.420;2023-07-22T08:44:58;10.52;;;6.13;;
71769;SDS011;66386;52.122;5.420;2023-07-22T08:47:28;10.82;;;7.05;;
71769;SDS011;66386;52.122;5.420;2023-07-22T08:49:59;11.60;;;6.63;;
71769;SDS011;66386;52.122;5.420;2023-07-22T08:52:38;8.93;;;6.40;;
71769;SDS011;66386;52.122;5.420;2023-07-22T08:55:05;10.95;;;7.00;;
71769;SDS011;66386;52.122;5.420;2023-07-22T08:57:33;9.63;;;6.68;;
71769;SDS011;66386;52.122;5.420;2023-07-22T09:00:00;9.13;;;6.70;;
71769;SDS011;66386;52.122;5.420;2023-07-22T09:02:27;11.85;;;6.18;;
71769;SDS011;66386;52.122;5.420;2023-07-22T09:04:55;8.60;;;6.13;;
71769;SDS011;66386;52.122;5.420;2023-07-22T09:07:22;9.02;;;5.88;;
71769;SDS011;66386;52.122;5.420;2023-07-22T09:09:49;7.07;;;5.00;;
71769;SDS011;66386;52.122;5.420;2023-07-22T09:12:16;7.82;;;5.28;;
71769;SDS011;66386;52.122;5.420;2023-07-22T09:14:44;9.27;;;5.60;;
71769;SDS011;66386;52.122;5.420;2023-07-22T09:17:11;6.80;;;4.70;;
71769;SDS011;66386;52.122;5.420;2023-07-22T09:19:38;6.03;;;4.45;;
71769;SDS011;66386;52.122;5.420;2023-07-22T09:22:05;8.77;;;4.25;;
71769;SDS011;66386;52.122;5.420;2023-07-22T09:24:34;9.93;;;4.45;;
71769;SDS011;66386;52.122;5.420;2023-07-22T09:27:01;4.72;;;3.97;;
71769;SDS011;66386;52.122;5.420;2023-07-22T09:29:37;8.10;;;4.30;;
71769;SDS011;66386;52.122;5.420;2023-07-22T09:32:06;5.90;;;3.85;;
71769;SDS011;66386;52.122;5.420;2023-07-22T09:34:33;5.43;;;3.38;;
71769;SDS011;66386;52.122;5.420;2023-07-22T09:37:00;8.95;;;4.30;;
71769;SDS011;66386;52.122;5.420;2023-07-22T09:39:27;8.90;;;4.05;;
71769;SDS011;66386;52.122;5.420;2023-07-22T09:41:53;7.47;;;3.80;;
71769;SDS011;66386;52.122;5.420;2023-07-22T09:44:20;5.95;;;3.90;;
71769;SDS011;66386;52.122;5.420;2023-07-22T09:46:47;6.82;;;4.05;;
71769;SDS011;66386;52.122;5.420;2023-07-22T09:49:16;9.43;;;4.10;;
71769;SDS011;66386;52.122;5.420;2023-07-22T09:51:44;5.00;;;3.58;;
71769;SDS011;66386;52.122;5.420;2023-07-22T09:54:28;5.27;;;3.67;;
71769;SDS011;66386;52.122;5.420;2023-07-22T09:56:57;5.22;;;4.18;;
71769;SDS011;66386;52.122;5.420;2023-07-22T09:59:24;6.13;;;3.58;;
71769;SDS011;66386;52.122;5.420;2023-07-22T10:01:55;7.05;;;3.92;;
71769;SDS011;66386;52.122;5.420;2023-07-22T10:04:25;6.65;;;3.55;;
71769;SDS011;66386;52.122;5.420;2023-07-22T10:06:54;5.73;;;3.90;;
71769;SDS011;66386;52.122;5.420;2023-07-22T10:09:22;6.07;;;4.10;;
71769;SDS011;66386;52.122;5.420;2023-07-22T10:11:52;6.82;;;4.03;;
71769;SDS011;66386;52.122;5.420;2023-07-22T10:14:19;6.45;;;3.63;;
71769;SDS011;66386;52.122;5.420;2023-07-22T10:16:46;3.45;;;3.15;;
71769;SDS011;66386;52.122;5.420;2023-07-22T10:19:13;6.40;;;3.60;;
71769;SDS011;66386;52.122;5.420;2023-07-22T10:21:41;8.13;;;3.70;;
71769;SDS011;66386;52.122;5.420;2023-07-22T10:24:07;9.88;;;3.60;;
71769;SDS011;66386;52.122;5.420;2023-07-22T10:26:36;5.40;;;3.50;;
71769;SDS011;66386;52.122;5.420;2023-07-22T10:29:05;5.63;;;3.08;;
71769;SDS011;66386;52.122;5.420;2023-07-22T10:31:35;5.23;;;3.40;;
71769;SDS011;66386;52.122;5.420;2023-07-22T10:34:01;5.10;;;3.13;;
71769;SDS011;66386;52.122;5.420;2023-07-22T10:36:31;5.25;;;3.67;;
71769;SDS011;66386;52.122;5.420;2023-07-22T10:38:58;12.98;;;5.88;;
71769;SDS011;66386;52.122;5.420;2023-07-22T10:41:29;7.85;;;2.83;;
71769;SDS011;66386;52.122;5.420;2023-07-22T10:43:57;4.93;;;2.17;;
71769;SDS011;66386;52.122;5.420;2023-07-22T10:46:32;3.25;;;2.28;;
71769;SDS011;66386;52.122;5.420;2023-07-22T10:49:13;5.85;;;2.60;;
71769;SDS011;66386;52.122;5.420;2023-07-22T10:51:49;4.50;;;2.42;;
71769;SDS011;66386;52.122;5.420;2023-07-22T10:54:31;6.60;;;3.30;;
71769;SDS011;66386;52.122;5.420;2023-07-22T10:57:03;6.73;;;3.10;;
71769;SDS011;66386;52.122;5.420;2023-07-22T10:59:52;4.00;;;2.83;;
71769;SDS011;66386;52.122;5.420;2023-07-22T11:02:25;6.15;;;2.97;;
71769;SDS011;66386;52.122;5.420;2023-07-22T11:04:56;4.57;;;2.97;;
71769;SDS011;66386;52.122;5.420;2023-07-22T11:07:29;3.20;;;2.30;;
71769;SDS011;66386;52.122;5.420;2023-07-22T11:09:57;5.47;;;2.20;;
71769;SDS011;66386;52.122;5.420;2023-07-22T11:12:24;4.13;;;2.00;;
71769;SDS011;66386;52.122;5.420;2023-07-22T11:14:52;4.63;;;2.00;;
71769;SDS011;66386;52.122;5.420;2023-07-22T11:17:28;3.75;;;2.00;;
71769;SDS011;66386;52.122;5.420;2023-07-22T11:19:57;3.17;;;2.08;;
71769;SDS011;66386;52.122;5.420;2023-07-22T11:22:25;4.80;;;2.53;;
71769;SDS011;66386;52.122;5.420;2023-07-22T11:24:55;2.67;;;2.03;;
71769;SDS011;66386;52.122;5.420;2023-07-22T11:27:24;4.75;;;2.08;;
71769;SDS011;66386;52.122;5.420;2023-07-22T11:29:51;3.75;;;2.45;;
71769;SDS011;66386;52.122;5.420;2023-07-22T11:32:18;3.65;;;2.83;;
71769;SDS011;66386;52.122;5.420;2023-07-22T11:34:50;3.57;;;2.77;;
71769;SDS011;66386;52.122;5.420;2023-07-22T11:37:19;6.45;;;2.60;;
71769;SDS011;66386;52.122;5.420;2023-07-22T11:39:45;5.90;;;2.70;;
71769;SDS011;66386;52.122;5.420;2023-07-22T11:42:12;5.47;;;2.50;;
71769;SDS011;66386;52.122;5.420;2023-07-22T11:44:38;4.57;;;2.20;;
71769;SDS011;66386;52.122;5.420;2023-07-22T11:47:06;5.97;;;2.50;;
71769;SDS011;66386;52.122;5.420;2023-07-22T11:49:39;4.97;;;2.67;;
71769;SDS011;66386;52.122;5.420;2023-07-22T11:52:10;2.92;;;2.40;;
71769;SDS011;66386;52.122;5.420;2023-07-22T11:54:41;3.25;;;2.03;;
71769;SDS011;66386;52.122;5.420;2023-07-22T11:57:18;4.57;;;2.10;;
71769;SDS011;66386;52.122;5.420;2023-07-22T11:59:47;2.97;;;2.20;;
71769;SDS011;66386;52.122;5.420;2023-07-22T12:02:17;4.70;;;2.30;;
71769;SDS011;66386;52.122;5.420;2023-07-22T12:04:56;4.38;;;2.58;;
71769;SDS011;66386;52.122;5.420;2023-07-22T12:07:26;4.07;;;2.35;;
71769;SDS011;66386;52.122;5.420;2023-07-22T12:09:56;4.95;;;2.60;;
71769;SDS011;66386;52.122;5.420;2023-07-22T12:12:42;4.23;;;2.07;;
71769;SDS011;66386;52.122;5.420;2023-07-22T12:15:12;2.75;;;2.38;;
71769;SDS011;66386;52.122;5.420;2023-07-22T12:20:11;4.50;;;1.80;;
71769;SDS011;66386;52.122;5.420;2023-07-22T12:22:37;3.22;;;1.90;;
71769;SDS011;66386;52.122;5.420;2023-07-22T12:25:05;4.20;;;1.90;;
71769;SDS011;66386;52.122;5.420;2023-07-22T12:27:32;3.67;;;2.33;;
71769;SDS011;66386;52.122;5.420;2023-07-22T12:29:58;3.58;;;1.75;;
71769;SDS011;66386;52.122;5.420;2023-07-22T12:32:25;3.35;;;1.77;;
71769;SDS011;66386;52.122;5.420;2023-07-22T12:34:51;4.68;;;1.85;;
71769;SDS011;66386;52.122;5.420;2023-07-22T12:37:18;3.63;;;1.67;;
71769;SDS011;66386;52.122;5.420;2023-07-22T12:39:44;4.20;;;1.98;;
71769;SDS011;66386;52.122;5.420;2023-07-22T12:42:11;2.58;;;1.95;;
71769;SDS011;66386;52.122;5.420;2023-07-22T12:44:38;2.97;;;1.90;;
71769;SDS011;66386;52.122;5.420;2023-07-22T12:47:04;4.35;;;2.10;;
71769;SDS011;66386;52.122;5.420;2023-07-22T12:49:31;5.10;;;2.07;;
71769;SDS011;66386;52.122;5.420;2023-07-22T12:51:57;3.03;;;2.10;;
71769;SDS011;66386;52.122;5.420;2023-07-22T12:54:30;4.72;;;2.20;;
71769;SDS011;66386;52.122;5.420;2023-07-22T12:56:57;4.00;;;2.00;;
71769;SDS011;66386;52.122;5.420;2023-07-22T12:59:24;4.97;;;2.38;;
71769;SDS011;66386;52.122;5.420;2023-07-22T13:01:50;3.40;;;2.10;;
71769;SDS011;66386;52.122;5.420;2023-07-22T13:04:17;3.63;;;2.10;;
71769;SDS011;66386;52.122;5.420;2023-07-22T13:06:43;2.83;;;1.80;;
71769;SDS011;66386;52.122;5.420;2023-07-22T13:09:10;5.78;;;2.60;;
71769;SDS011;66386;52.122;5.420;2023-07-22T13:11:36;4.28;;;2.53;;
71769;SDS011;66386;52.122;5.420;2023-07-22T13:14:03;8.10;;;3.80;;
71769;SDS011;66386;52.122;5.420;2023-07-22T13:16:30;5.88;;;3.13;;
71769;SDS011;66386;52.122;5.420;2023-07-22T13:18:56;6.65;;;3.30;;
71769;SDS011;66386;52.122;5.420;2023-07-22T13:21:26;7.85;;;3.13;;
71769;SDS011;66386;52.122;5.420;2023-07-22T13:23:54;5.03;;;2.95;;
71769;SDS011;66386;52.122;5.420;2023-07-22T13:26:21;4.97;;;2.77;;
71769;SDS011;66386;52.122;5.420;2023-07-22T13:28:47;5.85;;;3.28;;
71769;SDS011;66386;52.122;5.420;2023-07-22T13:31:14;4.70;;;2.83;;
71769;SDS011;66386;52.122;5.420;2023-07-22T13:33:40;4.82;;;2.75;;
71769;SDS011;66386;52.122;5.420;2023-07-22T13:36:07;3.33;;;2.38;;
71769;SDS011;66386;52.122;5.420;2023-07-22T13:38:35;6.17;;;2.30;;
71769;SDS011;66386;52.122;5.420;2023-07-22T13:41:04;7.13;;;2.45;;
71769;SDS011;66386;52.122;5.420;2023-07-22T13:43:31;3.97;;;1.80;;
71769;SDS011;66386;52.122;5.420;2023-07-22T13:45:57;2.53;;;1.77;;
71769;SDS011;66386;52.122;5.420;2023-07-22T13:48:24;3.08;;;1.38;;
71769;SDS011;66386;52.122;5.420;2023-07-22T13:50:50;2.97;;;1.77;;
71769;SDS011;66386;52.122;5.420;2023-07-22T13:53:17;2.65;;;1.38;;
71769;SDS011;66386;52.122;5.420;2023-07-22T13:55:44;3.75;;;2.05;;
71769;SDS011;66386;52.122;5.420;2023-07-22T13:58:15;2.40;;;1.02;;
71769;SDS011;66386;52.122;5.420;2023-07-22T14:00:41;3.55;;;1.10;;
71769;SDS011;66386;52.122;5.420;2023-07-22T14:03:08;3.27;;;0.97;;
71769;SDS011;66386;52.122;5.420;2023-07-22T14:05:35;2.50;;;0.98;;
71769;SDS011;66386;52.122;5.420;2023-07-22T14:08:02;1.90;;;1.10;;
71769;SDS011;66386;52.122;5.420;2023-07-22T14:10:28;1.95;;;1.05;;
71769;SDS011;66386;52.122;5.420;2023-07-22T14:12:55;1.25;;;1.00;;
71769;SDS011;66386;52.122;5.420;2023-07-22T14:15:21;2.90;;;1.07;;
71769;SDS011;66386;52.122;5.420;2023-07-22T14:17:48;1.65;;;0.70;;
71769;SDS011;66386;52.122;5.420;2023-07-22T14:20:14;3.72;;;1.33;;
71769;SDS011;66386;52.122;5.420;2023-07-22T14:22:41;3.58;;;1.00;;
71769;SDS011;66386;52.122;5.420;2023-07-22T14:25:08;2.35;;;1.23;;
71769;SDS011;66386;52.122;5.420;2023-07-22T14:27:37;2.50;;;0.80;;
71769;SDS011;66386;52.122;5.420;2023-07-22T14:30:04;2.25;;;0.98;;
71769;SDS011;66386;52.122;5.420;2023-07-22T14:32:32;1.92;;;0.90;;
71769;SDS011;66386;52.122;5.420;2023-07-22T14:34:58;1.85;;;0.80;;
71769;SDS011;66386;52.122;5.420;2023-07-22T14:37:25;3.50;;;1.20;;
71769;SDS011;66386;52.122;5.420;2023-07-22T14:39:52;1.77;;;1.23;;
71769;SDS011;66386;52.122;5.420;2023-07-22T14:42:18;4.45;;;0.82;;
71769;SDS011;66386;52.122;5.420;2023-07-22T14:44:45;2.50;;;1.10;;